Time;durP1;ratioP1;P1;durP2;ratioP2;P2;SDS_P1;SDS_P2;PMS_P1;PMS_P2;Temp;Humidity;BMP_temperature;BMP_pressure;BME280_temperature;BME280_humidity;BME280_pressure;Samples;Min_cycle;Max_cycle;Signal;HPM_P1;HPM_P2
2022/12/28 00:02:01;;;;;;;6.40;5.77;;;4.00;99.90;;;;;;5015678;28;20236;-80
2022/12/28 00:04:26;;;;;;;6.80;5.80;;;4.50;99.90;;;;;;5015026;28;20467;-80
2022/12/28 00:06:52;;;;;;;6.03;5.10;;;4.40;99.90;;;;;;5008170;28;20185;-80
2022/12/28 00:09:17;;;;;;;6.33;5.70;;;4.00;99.90;;;;;;5010859;28;20185;-78
2022/12/28 00:11:43;;;;;;;6.30;5.60;;;4.10;99.90;;;;;;5012726;28;20343;-78
2022/12/28 00:14:08;;;;;;;5.70;5.10;;;4.30;99.90;;;;;;5013286;28;20259;-78
2022/12/28 00:16:36;;;;;;;6.60;5.73;;;4.30;99.90;;;;;;5012631;28;20176;-78
2022/12/28 00:19:04;;;;;;;6.65;5.00;;;4.10;99.90;;;;;;5010542;28;20193;-78
2022/12/28 00:21:30;;;;;;;6.57;4.90;;;4.20;99.90;;;;;;5012574;28;20208;-80
2022/12/28 00:23:58;;;;;;;5.95;4.95;;;4.20;99.90;;;;;;5011996;28;20699;-79
2022/12/28 00:26:26;;;;;;;6.03;5.43;;;4.30;99.90;;;;;;5012650;28;20175;-80
2022/12/28 00:28:52;;;;;;;5.93;5.22;;;4.10;99.90;;;;;;5013510;28;20192;-81
2022/12/28 00:31:17;;;;;;;6.77;5.00;;;4.20;99.90;;;;;;5012418;28;20721;-80
2022/12/28 00:33:43;;;;;;;8.20;4.70;;;4.00;99.90;;;;;;5011115;28;20191;-80
2022/12/28 00:36:12;;;;;;;6.03;5.03;;;4.10;99.90;;;;;;5012396;28;20192;-80
2022/12/28 00:38:37;;;;;;;5.30;4.80;;;4.20;99.90;;;;;;5010602;28;20863;-80
2022/12/28 00:41:04;;;;;;;5.10;4.60;;;4.50;99.90;;;;;;5005310;28;20296;-78
2022/12/28 00:43:30;;;;;;;5.85;4.90;;;4.20;99.90;;;;;;5012339;28;20208;-80
2022/12/28 00:45:56;;;;;;;7.97;4.45;;;4.20;99.90;;;;;;5011983;28;20276;-79
2022/12/28 00:48:22;;;;;;;4.70;4.20;;;4.10;99.90;;;;;;5011234;28;20686;-79
2022/12/28 00:50:48;;;;;;;6.83;4.47;;;4.40;99.90;;;;;;5012259;28;20231;-78
2022/12/28 00:53:14;;;;;;;6.65;5.07;;;4.10;99.90;;;;;;5011728;28;20445;-79
2022/12/28 00:55:40;;;;;;;6.20;5.28;;;4.40;99.90;;;;;;5005441;28;20184;-79
2022/12/28 00:58:06;;;;;;;5.17;4.53;;;4.70;99.90;;;;;;5019261;28;20180;-78
2022/12/28 01:00:33;;;;;;;5.55;4.50;;;4.70;99.90;;;;;;5009550;28;20489;-78
2022/12/28 01:02:58;;;;;;;4.93;4.47;;;4.50;99.90;;;;;;5020315;28;20263;-78
2022/12/28 01:05:24;;;;;;;5.93;5.30;;;4.20;99.90;;;;;;5011984;28;20212;-78
2022/12/28 01:07:50;;;;;;;5.63;4.30;;;4.70;99.90;;;;;;5011016;28;20227;-78
2022/12/28 01:10:16;;;;;;;5.43;4.53;;;4.40;99.90;;;;;;5005921;28;21002;-79
2022/12/28 01:12:42;;;;;;;5.00;4.50;;;4.60;99.90;;;;;;5012828;28;20584;-79
2022/12/28 01:15:10;;;;;;;5.10;4.40;;;3.80;99.90;;;;;;5012605;28;20218;-78
2022/12/28 01:17:36;;;;;;;7.85;4.68;;;4.40;99.90;;;;;;5006117;28;20575;-78
2022/12/28 01:20:02;;;;;;;6.05;4.38;;;4.30;99.90;;;;;;5012103;28;20191;-78
2022/12/28 01:22:28;;;;;;;5.32;3.85;;;4.30;99.90;;;;;;5011393;28;20211;-78
2022/12/28 01:24:53;;;;;;;5.87;4.40;;;4.60;99.90;;;;;;5001952;28;20216;-78
2022/12/28 01:27:19;;;;;;;4.57;3.80;;;4.30;99.90;;;;;;5011328;28;20177;-78
2022/12/28 01:29:44;;;;;;;4.63;3.60;;;4.50;99.90;;;;;;5011876;28;20195;-78
2022/12/28 01:32:10;;;;;;;5.50;3.77;;;4.50;99.90;;;;;;5010841;28;20208;-79
2022/12/28 01:34:36;;;;;;;5.13;3.37;;;5.00;99.90;;;;;;5011962;28;20191;-78
2022/12/28 01:37:01;;;;;;;4.07;3.67;;;4.60;99.90;;;;;;5011201;28;20713;-78
2022/12/28 01:39:27;;;;;;;4.57;3.80;;;4.80;99.90;;;;;;5003429;28;20563;-78
2022/12/28 01:41:52;;;;;;;5.70;3.90;;;5.10;99.90;;;;;;5010934;28;20213;-78
2022/12/28 01:44:24;;;;;;;7.80;4.47;;;5.10;99.90;;;;;;5011373;28;20199;-79
2022/12/28 01:47:01;;;;;;;5.60;4.22;;;4.70;99.90;;;;;;5011086;28;20190;-78
2022/12/28 01:49:32;;;;;;;4.25;3.85;;;5.10;99.90;;;;;;5010656;28;20194;-79
2022/12/28 01:52:31;;;;;;;3.88;3.42;;;4.70;99.90;;;;;;5011331;28;20204;-79
2022/12/28 01:55:23;;;;;;;6.03;4.13;;;4.90;99.90;;;;;;5002424;28;20290;-78
2022/12/28 01:57:57;;;;;;;3.80;3.40;;;4.80;99.90;;;;;;5011081;28;20204;-78
2022/12/28 02:00:23;;;;;;;4.32;3.30;;;4.80;99.90;;;;;;5009732;28;20608;-78
2022/12/28 02:03:03;;;;;;;4.37;3.10;;;4.60;99.90;;;;;;5010963;28;20306;-78
2022/12/28 02:05:32;;;;;;;4.03;3.60;;;4.90;99.90;;;;;;5005572;28;20530;-78
2022/12/28 02:08:04;;;;;;;6.70;3.90;;;4.90;99.90;;;;;;5010892;28;20180;-79
2022/12/28 02:10:31;;;;;;;5.25;3.70;;;4.80;99.90;;;;;;5008954;28;20185;-78
2022/12/28 02:12:59;;;;;;;3.90;3.50;;;5.00;99.90;;;;;;5010857;28;20698;-78
2022/12/28 02:15:24;;;;;;;3.88;3.53;;;5.10;99.90;;;;;;5010528;28;20217;-79
2022/12/28 02:17:50;;;;;;;4.13;3.20;;;5.10;99.90;;;;;;5003978;28;20264;-79
2022/12/28 02:20:16;;;;;;;6.10;3.43;;;5.10;99.90;;;;;;5005977;28;20184;-77
2022/12/28 02:22:42;;;;;;;4.38;3.53;;;5.10;99.90;;;;;;5010879;28;20228;-78
2022/12/28 02:25:10;;;;;;;4.00;3.60;;;5.10;99.90;;;;;;4998304;28;20301;-78
2022/12/28 02:28:13;;;;;;;6.47;3.50;;;5.40;99.90;;;;;;5010671;28;20194;-78
2022/12/28 02:30:46;;;;;;;3.70;2.88;;;5.20;99.90;;;;;;5010382;28;20269;-79
2022/12/28 02:33:25;;;;;;;3.33;2.72;;;5.60;99.90;;;;;;5005369;28;20257;-79
2022/12/28 02:35:59;;;;;;;2.70;2.50;;;5.30;99.90;;;;;;5012204;28;20280;-79
2022/12/28 02:38:43;;;;;;;3.10;2.80;;;5.30;99.90;;;;;;5016338;28;20223;-79
2022/12/28 02:41:14;;;;;;;4.07;2.55;;;5.30;99.90;;;;;;5015736;28;20216;-79
2022/12/28 02:43:39;;;;;;;2.53;2.17;;;5.50;99.90;;;;;;5029829;28;20666;-78
2022/12/28 02:50:04;;;;;;;2.60;2.40;;;5.40;99.90;;;;;;5011302;28;20200;-78
2022/12/28 02:52:47;;;;;;;2.67;2.42;;;5.70;99.90;;;;;;5008809;28;20275;-77
2022/12/28 02:58:27;;;;;;;6.25;4.30;;;5.70;99.90;;;;;;5013751;28;20177;-77
2022/12/28 03:01:36;;;;;;;3.05;2.35;;;5.90;99.90;;;;;;5027850;28;20206;-77
2022/12/28 03:04:16;;;;;;;3.58;3.25;;;5.90;99.90;;;;;;4998505;28;20886;-79
2022/12/28 03:09:50;;;;;;;3.00;2.15;;;6.10;99.90;;;;;;4994409;28;20618;-78
2022/12/28 03:12:25;;;;;;;1.60;1.50;;;6.00;99.90;;;;;;5010214;28;20207;-78
2022/12/28 03:15:02;;;;;;;4.25;2.55;;;6.30;99.90;;;;;;5011364;28;20194;-77
2022/12/28 03:31:35;;;;;;;2.08;1.88;;;6.10;99.90;;;;;;5014172;28;20663;-77
2022/12/28 03:34:08;;;;;;;1.95;1.70;;;6.20;99.90;;;;;;5002095;28;20194;-78
2022/12/28 03:37:17;;;;;;;2.72;1.75;;;5.90;99.90;;;;;;5007744;28;20201;-78
2022/12/28 03:40:09;;;;;;;2.50;2.30;;;6.10;99.90;;;;;;4998595;28;20206;-77
2022/12/28 03:45:43;;;;;;;1.60;1.50;;;6.80;99.90;;;;;;5014020;28;20205;-78
2022/12/28 03:48:10;;;;;;;1.50;1.40;;;6.40;99.90;;;;;;5008323;28;20191;-78
2022/12/28 03:50:38;;;;;;;1.52;1.42;;;5.90;99.90;;;;;;5013350;28;20183;-77
2022/12/28 03:53:04;;;;;;;2.78;1.70;;;6.50;99.90;;;;;;5008780;28;20726;-77
2022/12/28 03:55:30;;;;;;;1.33;1.20;;;6.80;99.90;;;;;;5004582;28;20191;-78
2022/12/28 03:57:55;;;;;;;1.70;1.60;;;6.60;99.90;;;;;;5011198;28;20445;-78
2022/12/28 04:00:21;;;;;;;1.60;1.50;;;6.70;99.90;;;;;;5013201;28;20187;-78
2022/12/28 04:02:46;;;;;;;2.00;1.57;;;6.80;99.90;;;;;;5013847;28;20481;-78
2022/12/28 04:05:12;;;;;;;1.70;1.50;;;6.70;99.90;;;;;;5015101;28;20277;-77
2022/12/28 04:07:38;;;;;;;2.07;1.57;;;6.50;99.90;;;;;;5011312;28;20287;-78
2022/12/28 04:10:04;;;;;;;3.23;1.37;;;6.70;99.90;;;;;;5010802;28;20191;-78
2022/12/28 04:12:29;;;;;;;2.37;1.43;;;6.70;99.90;;;;;;5012751;28;20203;-78
2022/12/28 04:14:55;;;;;;;2.03;1.50;;;6.70;99.90;;;;;;5012733;28;20409;-78
2022/12/28 04:17:20;;;;;;;2.20;1.43;;;6.80;99.90;;;;;;5012469;28;20317;-78
2022/12/28 04:19:46;;;;;;;1.73;1.63;;;6.90;99.90;;;;;;5005644;28;20202;-78
2022/12/28 04:22:11;;;;;;;1.60;1.50;;;6.60;99.90;;;;;;5015920;28;20680;-78
2022/12/28 04:24:37;;;;;;;1.57;1.23;;;6.60;99.90;;;;;;5003309;28;20208;-78
2022/12/28 04:27:02;;;;;;;1.37;1.13;;;7.10;99.90;;;;;;5008994;28;20666;-78
2022/12/28 04:29:28;;;;;;;1.70;1.60;;;6.60;99.90;;;;;;5011362;28;20187;-78
2022/12/28 04:31:53;;;;;;;1.40;1.27;;;7.00;99.90;;;;;;5012312;28;20205;-77
2022/12/28 04:34:19;;;;;;;2.23;1.50;;;7.20;99.90;;;;;;5008172;28;20274;-78
2022/12/28 04:36:46;;;;;;;1.80;1.30;;;7.20;99.90;;;;;;5011911;28;20194;-79
2022/12/28 04:39:11;;;;;;;1.30;1.20;;;6.90;99.90;;;;;;5007235;28;20187;-78
2022/12/28 04:41:37;;;;;;;1.47;1.30;;;7.40;99.90;;;;;;5009540;28;20265;-78
2022/12/28 04:44:02;;;;;;;2.80;1.70;;;7.30;99.90;;;;;;5012326;28;20215;-78
2022/12/28 04:46:28;;;;;;;1.60;1.20;;;7.10;99.90;;;;;;5009719;28;20172;-78
2022/12/28 04:48:53;;;;;;;3.00;2.17;;;6.90;99.90;;;;;;5009952;28;20558;-78
2022/12/28 04:51:22;;;;;;;2.40;1.30;;;7.00;99.90;;;;;;5012110;28;20282;-78
2022/12/28 04:53:48;;;;;;;1.48;1.35;;;6.80;99.90;;;;;;5009881;28;20213;-78
2022/12/28 04:56:15;;;;;;;2.05;1.50;;;7.00;99.90;;;;;;5010380;28;20179;-77
2022/12/28 04:58:41;;;;;;;2.00;1.42;;;7.10;99.90;;;;;;5012081;28;20253;-78
2022/12/28 05:01:13;;;;;;;3.33;1.30;;;7.40;99.90;;;;;;5011738;28;20207;-78
2022/12/28 05:03:41;;;;;;;1.58;1.20;;;6.90;99.90;;;;;;5004707;28;20444;-77
2022/12/28 05:06:15;;;;;;;1.30;1.20;;;6.90;99.90;;;;;;5010362;28;20278;-78
2022/12/28 05:08:42;;;;;;;1.42;1.30;;;6.90;99.90;;;;;;5008530;28;20959;-77
2022/12/28 05:11:11;;;;;;;2.15;1.20;;;7.10;99.90;;;;;;5013246;28;20577;-77
2022/12/28 05:13:37;;;;;;;1.85;1.67;;;7.10;99.90;;;;;;5024921;28;20217;-79
2022/12/28 05:16:09;;;;;;;2.27;1.43;;;7.40;99.90;;;;;;5006725;28;20218;-77
2022/12/28 05:18:34;;;;;;;1.70;1.10;;;7.40;99.90;;;;;;5029632;28;20221;-78
2022/12/28 05:21:06;;;;;;;1.70;1.20;;;7.10;99.90;;;;;;5031533;28;20213;-78
2022/12/28 05:23:33;;;;;;;1.25;1.15;;;7.10;99.90;;;;;;5027211;28;20209;-78
2022/12/28 05:25:59;;;;;;;3.08;1.35;;;7.00;99.90;;;;;;5020166;28;20175;-78
2022/12/28 05:28:25;;;;;;;1.53;1.40;;;6.70;99.90;;;;;;5031149;28;20671;-78
2022/12/28 05:30:51;;;;;;;2.00;0.90;;;7.30;99.90;;;;;;5029428;28;20556;-78
2022/12/28 05:33:17;;;;;;;1.95;1.50;;;7.30;99.90;;;;;;5012509;28;20438;-78
2022/12/28 05:35:43;;;;;;;1.35;1.25;;;7.40;99.90;;;;;;5025171;28;20197;-79
2022/12/28 05:38:08;;;;;;;1.40;1.30;;;7.50;99.90;;;;;;5027529;28;20186;-78
2022/12/28 05:40:34;;;;;;;1.90;1.27;;;7.30;99.90;;;;;;5007662;28;20233;-78
2022/12/28 05:43:00;;;;;;;2.27;1.20;;;7.20;99.90;;;;;;5010903;28;20308;-77
2022/12/28 05:45:25;;;;;;;1.47;1.20;;;7.70;99.90;;;;;;5010783;28;20430;-78
2022/12/28 05:47:52;;;;;;;1.40;1.30;;;7.40;99.90;;;;;;5011527;28;20187;-79
2022/12/28 05:50:18;;;;;;;2.00;1.20;;;7.30;99.90;;;;;;5003426;28;20190;-79
2022/12/28 05:52:44;;;;;;;1.27;1.17;;;7.30;99.90;;;;;;5011727;28;20545;-78
2022/12/28 05:55:09;;;;;;;1.50;1.17;;;7.30;99.90;;;;;;5005878;28;20249;-78
2022/12/28 05:57:35;;;;;;;1.87;1.40;;;7.90;99.90;;;;;;5003556;28;20267;-78
2022/12/28 06:00:00;;;;;;;1.40;1.30;;;7.90;99.90;;;;;;5009290;28;20542;-78
2022/12/28 06:02:26;;;;;;;1.83;1.27;;;7.70;99.90;;;;;;5010659;28;20654;-79
2022/12/28 06:04:52;;;;;;;3.53;1.57;;;7.50;99.90;;;;;;5011299;28;20634;-78
2022/12/28 06:07:19;;;;;;;1.58;1.20;;;7.40;99.90;;;;;;5006581;28;20180;-78
2022/12/28 06:09:44;;;;;;;1.83;1.40;;;7.90;99.90;;;;;;5006601;28;20198;-79
2022/12/28 06:12:10;;;;;;;2.23;1.20;;;7.20;99.90;;;;;;5010741;28;20203;-78
2022/12/28 06:14:35;;;;;;;2.77;2.10;;;7.50;99.90;;;;;;5010874;28;20197;-79
2022/12/28 06:17:01;;;;;;;1.97;1.20;;;7.30;99.90;;;;;;5007894;28;20190;-78
2022/12/28 06:19:26;;;;;;;2.10;1.40;;;7.60;99.90;;;;;;5011265;28;20205;-78
2022/12/28 06:21:52;;;;;;;1.53;1.30;;;7.70;99.90;;;;;;5022131;28;20205;-78
2022/12/28 06:24:18;;;;;;;1.40;1.30;;;7.80;99.90;;;;;;5000838;28;20253;-79
2022/12/28 06:26:43;;;;;;;1.67;1.20;;;7.90;99.90;;;;;;5010568;28;20178;-78
2022/12/28 06:29:09;;;;;;;2.57;1.30;;;7.40;99.90;;;;;;5010284;28;20681;-79
2022/12/28 06:31:38;;;;;;;1.55;1.45;;;7.80;99.90;;;;;;5010268;28;20199;-78
2022/12/28 06:34:05;;;;;;;1.45;1.35;;;7.60;99.90;;;;;;5007512;28;20187;-78
2022/12/28 06:36:34;;;;;;;1.40;1.15;;;7.60;99.90;;;;;;5010780;28;20183;-78
2022/12/28 06:39:01;;;;;;;1.48;1.13;;;7.50;99.90;;;;;;5011969;28;20604;-79
2022/12/28 06:41:27;;;;;;;1.75;1.10;;;7.50;99.90;;;;;;5010936;28;20213;-78
2022/12/28 06:43:53;;;;;;;1.42;1.30;;;7.60;99.90;;;;;;5010967;28;20210;-79
2022/12/28 06:46:20;;;;;;;2.40;1.47;;;7.50;99.90;;;;;;5012742;28;20179;-78
2022/12/28 06:48:46;;;;;;;2.45;1.33;;;7.50;99.90;;;;;;5007402;28;20179;-78
2022/12/28 06:51:16;;;;;;;3.53;2.10;;;7.60;99.90;;;;;;5012985;28;20264;-79
2022/12/28 06:53:43;;;;;;;2.33;1.58;;;7.80;99.90;;;;;;5009821;28;20191;-78
2022/12/28 06:56:20;;;;;;;2.17;1.58;;;7.70;99.90;;;;;;5021505;28;20183;-78
2022/12/28 06:58:47;;;;;;;3.58;1.60;;;7.50;99.90;;;;;;5012841;28;20186;-78
2022/12/28 07:01:15;;;;;;;2.88;1.30;;;7.80;99.90;;;;;;5003612;28;20262;-79
2022/12/28 07:03:42;;;;;;;2.35;1.92;;;7.70;99.90;;;;;;5012898;28;20261;-78
2022/12/28 07:06:09;;;;;;;2.55;1.55;;;7.60;99.90;;;;;;5014922;28;20241;-79
2022/12/28 07:08:35;;;;;;;1.80;1.70;;;8.20;99.90;;;;;;5012392;28;20179;-79
2022/12/28 07:11:06;;;;;;;2.33;1.98;;;7.50;99.90;;;;;;5010192;28;20702;-78
2022/12/28 07:13:32;;;;;;;1.85;1.55;;;7.90;99.90;;;;;;5014422;28;20740;-78
2022/12/28 07:16:01;;;;;;;1.77;1.35;;;7.70;99.90;;;;;;5013996;28;20261;-78
2022/12/28 07:18:27;;;;;;;3.45;1.90;;;7.50;99.90;;;;;;5012165;28;20278;-78
2022/12/28 07:21:02;;;;;;;3.93;1.63;;;7.60;99.90;;;;;;5013683;28;20266;-77
2022/12/28 07:23:30;;;;;;;3.08;2.03;;;7.70;99.90;;;;;;5014397;28;20211;-78
2022/12/28 07:25:57;;;;;;;2.45;2.05;;;7.60;99.90;;;;;;5004805;28;20271;-77
2022/12/28 07:28:23;;;;;;;1.83;1.70;;;7.60;99.90;;;;;;5013912;28;20875;-78
2022/12/28 07:30:48;;;;;;;2.00;1.65;;;7.60;99.90;;;;;;5015492;28;20605;-79
2022/12/28 07:33:14;;;;;;;1.70;1.60;;;7.60;99.90;;;;;;5011345;28;20274;-77
2022/12/28 07:35:39;;;;;;;1.40;1.30;;;7.60;99.90;;;;;;5006731;28;20686;-79
2022/12/28 07:38:05;;;;;;;2.37;2.00;;;7.90;99.90;;;;;;5013613;28;20262;-78
2022/12/28 07:40:30;;;;;;;2.80;2.03;;;7.70;99.90;;;;;;5012640;28;20202;-78
2022/12/28 07:42:59;;;;;;;2.63;2.43;;;8.00;99.90;;;;;;5012928;28;20580;-79
2022/12/28 07:45:24;;;;;;;2.28;1.80;;;7.60;99.90;;;;;;5014437;28;20198;-79
2022/12/28 07:47:50;;;;;;;2.77;2.10;;;8.10;99.90;;;;;;5021377;28;20193;-79
2022/12/28 07:50:15;;;;;;;1.60;1.50;;;8.10;99.90;;;;;;5010101;28;20556;-79
2022/12/28 07:52:41;;;;;;;2.30;1.63;;;7.60;99.90;;;;;;5013177;28;20672;-79
2022/12/28 07:55:07;;;;;;;2.97;2.00;;;7.60;99.90;;;;;;5010797;28;20247;-79
2022/12/28 07:57:33;;;;;;;2.70;1.90;;;7.60;99.90;;;;;;5012829;28;20187;-79
2022/12/28 07:59:59;;;;;;;12.70;10.95;;;7.70;99.90;;;;;;5012962;28;20777;-78
2022/12/28 08:02:24;;;;;;;4.90;4.00;;;7.70;99.90;;;;;;5006243;28;20243;-78
2022/12/28 08:04:49;;;;;;;1.77;1.67;;;7.60;99.90;;;;;;5010430;28;20269;-78
2022/12/28 08:07:15;;;;;;;3.80;1.30;;;8.00;99.90;;;;;;5012659;28;20175;-78
2022/12/28 08:09:40;;;;;;;1.70;1.60;;;7.80;99.90;;;;;;5008955;28;20561;-78
2022/12/28 08:12:06;;;;;;;2.27;2.13;;;7.80;99.90;;;;;;5013535;28;20680;-79
2022/12/28 08:14:32;;;;;;;2.30;1.53;;;7.60;99.90;;;;;;5012666;28;20269;-78
2022/12/28 08:16:57;;;;;;;3.33;2.10;;;7.70;99.90;;;;;;5011109;28;20190;-78
2022/12/28 08:19:23;;;;;;;1.80;1.57;;;7.80;99.90;;;;;;5011834;28;20195;-78
2022/12/28 08:21:48;;;;;;;1.87;1.60;;;8.20;99.90;;;;;;5012543;28;20211;-78
2022/12/28 08:24:16;;;;;;;2.53;2.00;;;7.90;99.90;;;;;;5010556;28;20849;-77
2022/12/28 08:26:43;;;;;;;1.83;1.73;;;7.70;99.90;;;;;;5012238;28;20186;-78
2022/12/28 08:29:11;;;;;;;2.15;2.05;;;8.20;99.90;;;;;;5012185;28;20175;-79
2022/12/28 08:31:40;;;;;;;1.95;1.80;;;8.40;99.90;;;;;;5012435;28;20738;-78
2022/12/28 08:34:08;;;;;;;1.70;1.60;;;8.00;99.90;;;;;;5009766;28;20293;-79
2022/12/28 08:36:34;;;;;;;3.20;1.80;;;7.90;99.90;;;;;;5005968;28;20659;-79
2022/12/28 08:39:00;;;;;;;2.17;1.73;;;8.10;99.90;;;;;;5013702;28;20198;-77
2022/12/28 08:41:27;;;;;;;2.20;2.00;;;7.80;99.90;;;;;;5012284;28;20536;-79
2022/12/28 08:43:54;;;;;;;2.58;1.80;;;8.00;99.90;;;;;;5011656;28;20203;-77
2022/12/28 08:46:22;;;;;;;1.73;1.50;;;8.10;99.90;;;;;;5011729;28;20198;-78
2022/12/28 08:48:48;;;;;;;1.83;1.58;;;8.30;99.90;;;;;;5010504;28;20717;-78
2022/12/28 08:51:17;;;;;;;2.10;1.80;;;8.10;99.90;;;;;;5011866;28;20721;-78
2022/12/28 08:53:44;;;;;;;1.50;1.40;;;8.40;99.90;;;;;;5012062;28;20671;-78
2022/12/28 08:56:12;;;;;;;2.40;1.70;;;8.10;99.90;;;;;;5007616;28;20562;-78
2022/12/28 08:58:40;;;;;;;1.85;1.75;;;8.30;99.90;;;;;;5012570;28;20282;-79
2022/12/28 09:01:08;;;;;;;2.50;1.80;;;8.50;99.90;;;;;;5012099;28;20211;-78
2022/12/28 09:03:42;;;;;;;3.30;2.30;;;9.00;99.90;;;;;;5010518;28;20698;-78
2022/12/28 09:06:11;;;;;;;2.20;2.00;;;8.90;99.90;;;;;;5008454;28;20183;-78
2022/12/28 09:08:37;;;;;;;2.03;1.88;;;8.80;99.90;;;;;;5010687;28;20190;-78
2022/12/28 09:11:09;;;;;;;2.70;1.88;;;9.00;99.90;;;;;;5011449;28;20206;-78
2022/12/28 09:13:35;;;;;;;2.17;1.85;;;9.00;99.90;;;;;;5009122;28;20687;-79
2022/12/28 09:16:03;;;;;;;1.70;1.50;;;9.60;99.90;;;;;;5010150;28;20286;-79
2022/12/28 09:18:29;;;;;;;2.45;1.40;;;9.30;99.90;;;;;;5010351;28;20200;-79
2022/12/28 09:20:55;;;;;;;1.77;1.67;;;9.50;99.90;;;;;;5011253;28;20648;-79
2022/12/28 09:23:21;;;;;;;1.93;1.83;;;9.90;99.90;;;;;;5016578;28;20203;-79
2022/12/28 09:25:46;;;;;;;1.48;1.38;;;10.10;99.90;;;;;;5002568;28;20553;-78
2022/12/28 09:28:12;;;;;;;2.10;1.97;;;9.90;99.90;;;;;;5011426;28;20184;-79
2022/12/28 09:30:38;;;;;;;1.90;1.50;;;10.20;99.90;;;;;;5011178;28;20668;-79
2022/12/28 09:35:47;;;;;;;3.28;2.20;;;10.90;99.90;;;;;;5010928;28;20195;-79
2022/12/28 09:38:13;;;;;;;2.53;2.20;;;10.70;98.70;;;;;;5010367;28;20181;-78
2022/12/28 09:40:39;;;;;;;3.30;2.00;;;10.70;98.40;;;;;;5009327;28;20188;-79
2022/12/28 09:43:04;;;;;;;3.43;1.93;;;11.40;98.40;;;;;;5012623;28;20201;-79
2022/12/28 09:45:31;;;;;;;2.13;1.87;;;11.10;98.00;;;;;;5011749;28;20264;-78
2022/12/28 09:48:06;;;;;;;2.30;2.10;;;10.70;98.40;;;;;;5009662;28;20177;-79
2022/12/28 09:50:34;;;;;;;1.55;1.45;;;10.50;98.10;;;;;;5010669;28;20179;-78
2022/12/28 09:53:05;;;;;;;1.60;1.42;;;10.70;98.00;;;;;;5009689;28;20594;-79
2022/12/28 09:55:37;;;;;;;1.30;1.20;;;10.80;98.10;;;;;;5006206;28;20240;-79
2022/12/28 09:58:04;;;;;;;1.33;1.10;;;10.70;98.20;;;;;;5011059;28;20287;-79
2022/12/28 10:00:48;;;;;;;1.30;1.20;;;10.60;98.40;;;;;;5010659;28;20216;-79
2022/12/28 10:03:18;;;;;;;1.45;1.27;;;10.40;98.40;;;;;;5004990;28;20221;-79
2022/12/28 10:05:44;;;;;;;2.17;1.67;;;10.80;98.30;;;;;;5010337;28;20193;-79
2022/12/28 10:08:13;;;;;;;2.15;1.38;;;10.80;98.10;;;;;;5008877;28;20214;-79
2022/12/28 10:10:40;;;;;;;1.55;1.27;;;11.20;97.70;;;;;;5009624;28;20265;-79
2022/12/28 10:13:25;;;;;;;2.08;1.15;;;11.50;97.40;;;;;;5030674;28;20212;-78
2022/12/28 10:15:51;;;;;;;2.90;2.00;;;11.20;96.10;;;;;;5009007;28;20192;-79
2022/12/28 10:18:25;;;;;;;1.75;1.33;;;11.80;96.30;;;;;;5008091;28;20190;-79
2022/12/28 10:20:51;;;;;;;1.63;1.38;;;11.90;95.40;;;;;;5008906;28;20189;-79
2022/12/28 10:23:26;;;;;;;2.35;1.40;;;12.20;95.80;;;;;;5012971;28;20182;-79
2022/12/28 10:25:55;;;;;;;2.45;1.98;;;11.70;95.30;;;;;;5003590;28;20221;-78
2022/12/28 10:28:26;;;;;;;1.63;1.13;;;12.10;95.60;;;;;;5010241;28;20262;-78
2022/12/28 10:31:09;;;;;;;2.90;1.73;;;11.80;95.30;;;;;;5010448;28;20190;-79
2022/12/28 10:33:41;;;;;;;1.10;0.80;;;12.30;95.90;;;;;;5004728;28;20655;-79
2022/12/28 10:36:12;;;;;;;2.65;1.10;;;11.90;95.30;;;;;;5006431;28;20187;-78
2022/12/28 10:38:41;;;;;;;1.50;1.40;;;12.40;95.20;;;;;;5005489;28;20807;-79
2022/12/28 10:41:10;;;;;;;2.55;1.30;;;12.90;95.30;;;;;;5008271;28;20205;-78
2022/12/28 10:43:41;;;;;;;2.40;0.80;;;12.90;94.20;;;;;;5008357;28;20211;-79
2022/12/28 10:46:15;;;;;;;2.58;1.33;;;13.20;93.70;;;;;;5008394;28;20187;-79
2022/12/28 10:48:46;;;;;;;1.17;0.98;;;13.20;93.10;;;;;;5004548;28;20334;-78
2022/12/28 10:51:23;;;;;;;1.23;1.00;;;13.40;93.20;;;;;;5009482;28;20205;-79
2022/12/28 10:53:56;;;;;;;3.75;1.30;;;13.10;92.60;;;;;;5008472;28;20197;-78
2022/12/28 10:56:29;;;;;;;1.33;1.23;;;12.90;92.90;;;;;;5008718;28;20266;-79
2022/12/28 10:59:19;;;;;;;1.50;1.35;;;13.40;93.40;;;;;;5009319;28;20190;-78
2022/12/28 11:01:44;;;;;;;1.48;1.38;;;13.40;93.30;;;;;;5011001;28;20687;-79
2022/12/28 11:04:21;;;;;;;2.00;1.20;;;12.40;93.50;;;;;;5007152;28;20213;-78
2022/12/28 11:07:01;;;;;;;2.40;0.80;;;12.70;93.30;;;;;;5009488;28;20187;-78
2022/12/28 11:09:29;;;;;;;5.00;4.50;;;13.10;93.40;;;;;;5008556;28;20649;-79
2022/12/28 11:12:24;;;;;;;2.65;1.30;;;13.30;93.20;;;;;;5008030;28;20954;-80
2022/12/28 11:14:51;;;;;;;1.42;0.95;;;12.80;93.00;;;;;;5009326;28;20210;-78
2022/12/28 11:17:25;;;;;;;1.88;1.17;;;13.00;93.20;;;;;;5010490;28;20201;-79
2022/12/28 11:20:02;;;;;;;1.95;1.10;;;13.30;92.70;;;;;;5002936;28;20186;-79
2022/12/28 11:22:29;;;;;;;1.27;0.90;;;13.20;92.60;;;;;;5008432;28;20202;-79
2022/12/28 11:24:56;;;;;;;3.55;1.85;;;13.10;93.10;;;;;;4998279;28;20211;-79
2022/12/28 11:27:23;;;;;;;1.65;1.10;;;12.50;93.00;;;;;;5008380;28;20191;-79
2022/12/28 11:29:51;;;;;;;1.45;1.33;;;12.50;93.20;;;;;;5008105;28;20187;-79
2022/12/28 11:32:38;;;;;;;1.40;1.30;;;12.50;93.50;;;;;;5009369;28;20203;-78
2022/12/28 11:35:05;;;;;;;2.03;1.30;;;12.00;93.40;;;;;;5006147;28;20688;-79
2022/12/28 11:37:30;;;;;;;2.65;0.93;;;12.10;93.60;;;;;;5009666;28;20564;-79
2022/12/28 11:39:57;;;;;;;3.37;1.27;;;12.10;94.00;;;;;;5007666;28;20651;-79
2022/12/28 11:42:35;;;;;;;1.92;1.00;;;12.40;94.30;;;;;;5011651;28;20214;-79
2022/12/28 11:45:05;;;;;;;1.58;0.90;;;12.30;94.30;;;;;;5012104;28;20825;-78
2022/12/28 11:47:32;;;;;;;2.00;1.70;;;12.40;93.90;;;;;;5012514;28;20201;-78
2022/12/28 11:50:37;;;;;;;1.50;1.10;;;12.60;94.00;;;;;;5010107;28;20278;-79
2022/12/28 11:53:16;;;;;;;1.40;1.30;;;12.10;93.40;;;;;;5012406;28;20202;-79
2022/12/28 11:56:01;;;;;;;1.30;1.10;;;12.60;93.70;;;;;;5010673;28;20910;-78
2022/12/28 11:58:30;;;;;;;2.75;1.52;;;12.50;94.00;;;;;;5004379;28;20613;-79
2022/12/28 12:00:58;;;;;;;1.60;1.10;;;12.50;93.70;;;;;;5014469;28;20178;-79
2022/12/28 12:03:58;;;;;;;0.95;0.90;;;11.70;93.60;;;;;;5012100;28;20238;-79
2022/12/28 12:06:44;;;;;;;3.05;0.88;;;12.20;93.90;;;;;;5008311;28;20559;-78
2022/12/28 12:09:22;;;;;;;1.55;1.13;;;12.50;93.80;;;;;;4985795;28;20365;-78
2022/12/28 12:11:50;;;;;;;0.93;0.82;;;12.30;93.60;;;;;;5003770;28;20256;-79
2022/12/28 12:14:22;;;;;;;8.77;1.77;;;12.60;93.70;;;;;;5010665;28;20278;-79
2022/12/28 12:16:52;;;;;;;1.13;0.80;;;12.90;94.00;;;;;;5011019;28;20186;-79
2022/12/28 12:19:27;;;;;;;1.45;1.10;;;12.80;93.70;;;;;;5013497;28;20191;-78
2022/12/28 12:22:21;;;;;;;4.70;1.30;;;12.90;93.90;;;;;;5012053;28;20214;-78
2022/12/28 12:25:01;;;;;;;1.70;0.80;;;12.40;93.80;;;;;;5006382;28;20763;-79
2022/12/28 12:27:35;;;;;;;3.00;1.13;;;12.10;93.90;;;;;;5007376;28;20182;-79
2022/12/28 12:30:05;;;;;;;1.52;1.10;;;12.20;94.30;;;;;;5012185;28;20191;-78
2022/12/28 12:33:16;;;;;;;1.40;0.80;;;12.40;94.30;;;;;;5006084;28;20205;-79
2022/12/28 12:36:33;;;;;;;1.00;0.90;;;12.20;94.10;;;;;;5012836;28;20191;-79
2022/12/28 12:39:45;;;;;;;1.42;1.33;;;12.50;94.30;;;;;;4998095;28;20183;-79
2022/12/28 12:42:23;;;;;;;1.33;0.80;;;12.50;93.90;;;;;;5011218;28;20222;-79
2022/12/28 12:45:07;;;;;;;1.45;1.00;;;12.80;93.90;;;;;;5011963;28;20202;-78
2022/12/28 12:47:57;;;;;;;2.70;1.23;;;12.50;93.60;;;;;;5007482;28;20179;-78
2022/12/28 12:50:49;;;;;;;2.42;1.20;;;11.90;93.60;;;;;;5013407;28;20211;-78
2022/12/28 12:53:36;;;;;;;1.42;1.20;;;12.70;94.10;;;;;;5012180;28;20618;-78
2022/12/28 12:56:28;;;;;;;1.20;1.00;;;12.30;93.80;;;;;;5011437;28;20232;-78
2022/12/28 12:59:27;;;;;;;1.27;1.10;;;12.20;93.90;;;;;;5005213;28;20186;-78
2022/12/28 13:02:10;;;;;;;1.20;1.10;;;12.00;94.10;;;;;;5010741;28;20227;-78
2022/12/28 13:04:39;;;;;;;1.55;1.30;;;12.00;94.60;;;;;;5009168;28;20220;-78
2022/12/28 13:07:31;;;;;;;1.30;1.20;;;11.70;94.40;;;;;;5011440;28;20186;-78
2022/12/28 13:10:02;;;;;;;1.30;1.20;;;12.10;94.90;;;;;;5008698;28;20194;-79
2022/12/28 13:12:28;;;;;;;2.97;1.13;;;12.10;94.40;;;;;;5013050;28;20572;-78
2022/12/28 13:14:59;;;;;;;1.67;1.00;;;12.40;95.00;;;;;;5011129;28;20192;-79
2022/12/28 13:17:25;;;;;;;3.85;1.50;;;12.10;94.80;;;;;;5011146;28;20430;-78
2022/12/28 13:20:05;;;;;;;7.35;1.80;;;12.40;95.00;;;;;;5007375;28;20257;-78
2022/12/28 13:22:32;;;;;;;2.95;1.30;;;11.60;95.00;;;;;;5012698;28;20210;-79
2022/12/28 13:24:58;;;;;;;2.25;1.80;;;12.30;95.50;;;;;;5006019;28;20213;-79
2022/12/28 13:27:43;;;;;;;2.80;1.20;;;12.10;95.60;;;;;;5010821;28;20187;-79
2022/12/28 13:30:17;;;;;;;4.32;1.45;;;11.70;95.50;;;;;;5011497;28;20182;-78
2022/12/28 13:32:50;;;;;;;2.15;1.27;;;11.80;95.80;;;;;;5010663;28;20211;-79
2022/12/28 13:35:28;;;;;;;3.10;2.85;;;11.80;95.70;;;;;;5006410;28;20185;-78
2022/12/28 13:38:04;;;;;;;2.10;1.48;;;11.50;95.50;;;;;;5001834;28;20556;-78
2022/12/28 13:40:31;;;;;;;1.60;1.20;;;12.00;95.90;;;;;;5009489;28;20185;-79